Time;durP1;ratioP1;P1;durP2;ratioP2;P2;SDS_P1;SDS_P2;PMS_P1;PMS_P2;Temp;Humidity;BMP_temperature;BMP_pressure;BME280_temperature;BME280_humidity;BME280_pressure;Samples;Min_cycle;Max_cycle;Signal;HPM_P1;HPM_P2
2023/05/25 00:00:17;;;;;;;3.38;2.00;;;;;;;20.12;53.23;98650.81;4958585;28;20055;-83
2023/05/25 00:02:43;;;;;;;4.13;1.95;;;;;;;20.11;53.15;98649.16;4958815;28;20078;-82
2023/05/25 00:05:09;;;;;;;3.70;2.08;;;;;;;20.15;53.13;98647.78;4958192;28;20061;-83
2023/05/25 00:07:35;;;;;;;4.03;2.00;;;;;;;20.13;53.28;98642.66;4974143;28;20383;-82
2023/05/25 00:10:00;;;;;;;6.38;2.00;;;;;;;20.12;53.16;98635.72;4958400;28;20127;-82
2023/05/25 00:12:26;;;;;;;3.30;1.90;;;;;;;20.13;53.17;98645.31;4958483;28;20074;-82
2023/05/25 00:14:51;;;;;;;5.28;2.05;;;;;;;20.14;53.18;98643.50;4958394;28;20035;-81
2023/05/25 00:17:17;;;;;;;3.17;2.05;;;;;;;20.15;53.41;98647.78;4958020;28;20027;-82
2023/05/25 00:19:43;;;;;;;3.50;2.00;;;;;;;20.14;53.29;98654.09;4957949;28;20042;-82
2023/05/25 00:22:09;;;;;;;2.75;1.90;;;;;;;20.12;53.15;98650.81;4958217;28;20045;-81
2023/05/25 00:24:35;;;;;;;4.43;2.20;;;;;;;20.12;53.22;98651.63;4958234;28;20411;-81
2023/05/25 00:27:01;;;;;;;4.40;1.77;;;;;;;20.11;53.17;98647.31;4972381;28;20046;-82
2023/05/25 00:29:26;;;;;;;2.67;1.92;;;;;;;20.11;53.10;98649.16;4977747;28;20129;-80
2023/05/25 00:31:52;;;;;;;3.55;1.75;;;;;;;20.15;53.07;98651.25;4976973;28;20146;-81
2023/05/25 00:34:18;;;;;;;2.53;1.90;;;;;;;20.17;53.17;98651.06;4961195;28;20484;-81
2023/05/25 00:36:47;;;;;;;2.83;1.70;;;;;;;20.13;53.14;98642.66;4993205;28;20421;-81
2023/05/25 00:39:15;;;;;;;2.85;1.73;;;;;;;20.17;53.04;98649.25;4993236;28;20740;-81
2023/05/25 00:41:45;;;;;;;4.18;2.00;;;;;;;20.15;53.24;98642.50;4977748;28;20136;-81
2023/05/25 00:44:11;;;;;;;3.65;1.60;;;;;;;20.16;53.06;98631.72;4975411;28;20081;-82
2023/05/25 00:46:37;;;;;;;4.40;2.20;;;;;;;20.21;52.85;98637.28;4986013;28;20043;-81
2023/05/25 00:49:03;;;;;;;3.92;1.85;;;;;;;20.19;53.17;98641.09;4957870;28;20038;-81
2023/05/25 00:51:28;;;;;;;3.60;2.28;;;;;;;20.19;53.13;98641.94;4957670;28;20565;-82
2023/05/25 00:53:54;;;;;;;3.15;1.80;;;;;;;20.15;53.08;98629.25;4941502;28;20515;-83
2023/05/25 00:56:29;;;;;;;2.92;1.80;;;;;;;20.15;53.17;98640.66;4973610;28;20031;-83
2023/05/25 00:58:55;;;;;;;2.90;1.90;;;;;;;20.16;53.25;98639.66;4941440;28;20059;-81
2023/05/25 01:01:21;;;;;;;7.43;2.50;;;;;;;20.09;53.10;98633.44;4973151;28;20035;-82
2023/05/25 01:03:52;;;;;;;2.30;1.90;;;;;;;20.07;53.30;98638.09;4956043;28;20055;-82
2023/05/25 01:06:18;;;;;;;5.72;2.00;;;;;;;20.08;53.30;98633.59;4958339;28;20030;-83
2023/05/25 01:08:48;;;;;;;3.05;2.03;;;;;;;20.07;53.37;98635.44;4941463;28;20080;-82
2023/05/25 01:11:13;;;;;;;3.08;1.90;;;;;;;20.09;53.36;98638.72;4958097;28;20100;-84
2023/05/25 01:13:40;;;;;;;4.65;1.98;;;;;;;20.07;53.61;98635.44;4981703;28;20026;-82
2023/05/25 01:16:06;;;;;;;10.48;2.03;;;;;;;20.06;53.64;98631.13;4976496;28;20052;-82
2023/05/25 01:18:32;;;;;;;2.88;2.05;;;;;;;20.03;53.53;98628.84;4976445;28;20030;-82
2023/05/25 01:21:21;;;;;;;3.28;2.15;;;;;;;20.00;53.68;98630.06;4992565;28;20497;-82
2023/05/25 01:23:55;;;;;;;3.17;1.98;;;;;;;19.99;53.58;98633.69;4976644;28;20405;-84
2023/05/25 01:26:20;;;;;;;4.68;2.10;;;;;;;19.97;53.60;98621.63;4976632;28;20030;-83
2023/05/25 01:28:49;;;;;;;6.20;2.20;;;;;;;19.97;53.60;98626.91;4993286;28;20110;-83
2023/05/25 01:31:15;;;;;;;3.40;2.10;;;;;;;19.93;53.61;98623.81;4976230;28;20398;-83
2023/05/25 01:33:41;;;;;;;3.10;2.33;;;;;;;19.86;53.78;98617.56;4976238;28;20038;-82
2023/05/25 01:36:07;;;;;;;2.88;2.03;;;;;;;19.89;53.84;98635.75;4975926;28;20034;-82
2023/05/25 01:38:33;;;;;;;5.05;2.20;;;;;;;19.85;53.90;98626.53;4959759;28;20034;-82
2023/05/25 01:40:58;;;;;;;2.70;2.10;;;;;;;19.81;53.90;98627.88;4959899;28;20026;-82
2023/05/25 01:43:24;;;;;;;3.65;2.17;;;;;;;19.77;53.89;98624.78;4975111;28;20132;-82
2023/05/25 01:45:50;;;;;;;2.30;1.88;;;;;;;19.78;54.08;98626.44;4950472;28;20026;-81
2023/05/25 01:48:26;;;;;;;6.10;2.35;;;;;;;19.75;54.16;98621.47;4940618;28;20046;-82
2023/05/25 01:50:56;;;;;;;2.78;2.08;;;;;;;19.70;54.26;98627.31;4972757;28;20573;-82
2023/05/25 01:53:25;;;;;;;3.40;2.08;;;;;;;19.68;54.09;98623.16;4956369;28;20030;-82
2023/05/25 01:55:57;;;;;;;3.28;2.40;;;;;;;19.64;54.12;98620.06;4940504;28;20034;-82
2023/05/25 01:58:23;;;;;;;4.20;2.10;;;;;;;19.63;54.27;98614.94;4956777;28;20030;-82
2023/05/25 02:00:49;;;;;;;4.07;2.35;;;;;;;19.63;54.26;98631.66;4956319;28;20533;-83
2023/05/25 02:03:14;;;;;;;3.60;2.17;;;;;;;19.61;54.22;98628.38;4956002;28;20491;-83
2023/05/25 02:05:43;;;;;;;4.47;2.38;;;;;;;19.56;54.30;98625.44;4972312;28;20038;-83
2023/05/25 02:08:08;;;;;;;3.05;2.22;;;;;;;19.58;54.38;98636.66;4940369;28;20494;-84
2023/05/25 02:10:34;;;;;;;3.28;2.00;;;;;;;19.57;54.34;98639.47;4956343;28;20093;-81
2023/05/25 02:12:59;;;;;;;3.10;2.25;;;;;;;19.55;54.43;98636.19;4972799;28;20031;-81
2023/05/25 02:15:30;;;;;;;7.82;3.63;;;;;;;19.55;54.44;98636.19;4940527;28;20471;-81
2023/05/25 02:17:56;;;;;;;4.10;2.25;;;;;;;19.53;54.31;98646.97;4957116;28;20074;-81
2023/05/25 02:20:22;;;;;;;5.60;1.98;;;;;;;19.52;54.48;98647.94;4972343;28;20041;-81
2023/05/25 02:22:47;;;;;;;6.43;2.47;;;;;;;19.50;54.57;98650.78;4956562;28;20042;-82
2023/05/25 02:25:13;;;;;;;4.30;2.30;;;;;;;19.50;54.46;98653.44;4940291;28;20043;-81
2023/05/25 02:27:39;;;;;;;7.05;2.33;;;;;;;19.47;54.59;98653.78;4972351;28;20158;-81
2023/05/25 02:30:05;;;;;;;4.10;2.20;;;;;;;19.43;54.53;98643.72;4972437;28;20042;-79
2023/05/25 02:32:32;;;;;;;3.22;2.10;;;;;;;19.40;54.69;98646.72;4956085;28;20023;-80
2023/05/25 02:34:58;;;;;;;3.42;2.08;;;;;;;19.37;54.75;98647.91;4956033;28;20049;-81
2023/05/25 02:37:23;;;;;;;2.60;2.10;;;;;;;19.39;54.70;98655.66;4971888;28;20023;-80
2023/05/25 02:39:49;;;;;;;2.75;2.10;;;;;;;19.34;54.79;98643.78;4971717;28;20426;-81
2023/05/25 02:42:14;;;;;;;3.45;2.20;;;;;;;19.34;54.66;98645.63;4940184;28;20053;-82
2023/05/25 02:44:41;;;;;;;4.57;2.30;;;;;;;19.33;54.92;98652.72;4952250;28;20450;-81
2023/05/25 02:47:06;;;;;;;2.80;2.17;;;;;;;19.31;54.68;98646.78;4962990;28;20026;-81
2023/05/25 02:49:33;;;;;;;4.13;2.17;;;;;;;19.31;54.75;98651.25;4958879;28;20034;-81
2023/05/25 02:51:58;;;;;;;7.32;2.35;;;;;;;19.30;54.67;98655.69;4974951;28;20030;-81
2023/05/25 02:54:24;;;;;;;3.20;2.33;;;;;;;19.30;54.71;98658.34;4974966;28;20125;-82
2023/05/25 02:56:50;;;;;;;4.78;2.55;;;;;;;19.28;54.76;98657.72;4974828;28;20097;-81
2023/05/25 02:59:15;;;;;;;3.58;2.35;;;;;;;19.34;54.66;98659.66;4975262;28;20072;-83
2023/05/25 03:01:41;;;;;;;6.07;2.40;;;;;;;19.44;54.55;98655.97;4958765;28;20100;-81
2023/05/25 03:04:06;;;;;;;4.65;2.63;;;;;;;19.61;53.87;98659.28;4974809;28;20078;-81
2023/05/25 03:06:32;;;;;;;2.63;2.08;;;;;;;19.84;53.44;98657.47;4992907;28;20544;-82
2023/05/25 03:08:57;;;;;;;4.18;2.13;;;;;;;20.01;53.10;98658.16;4978037;28;20078;-81
2023/05/25 03:11:23;;;;;;;3.42;2.50;;;;;;;20.18;52.63;98656.19;4994954;28;20030;-82
2023/05/25 03:13:49;;;;;;;3.97;2.42;;;;;;;20.43;52.23;98658.59;4978820;28;20026;-82
2023/05/25 03:16:15;;;;;;;4.68;2.38;;;;;;;20.68;51.53;98661.81;4995078;28;20030;-81
2023/05/25 03:18:40;;;;;;;3.53;2.30;;;;;;;21.00;51.02;98670.38;4978749;28;20136;-82
2023/05/25 03:21:06;;;;;;;3.70;2.50;;;;;;;21.32;50.01;98661.13;4978586;28;20582;-81
2023/05/25 03:23:31;;;;;;;2.50;2.10;;;;;;;21.69;49.32;98664.59;4996096;28;20038;-82
2023/05/25 03:25:57;;;;;;;4.93;2.10;;;;;;;22.09;48.50;98661.47;4995554;28;20037;-85
2023/05/25 03:28:22;;;;;;;7.07;2.10;;;;;;;22.51;47.78;98659.69;4978340;28;20045;-83
2023/05/25 03:30:48;;;;;;;4.03;2.40;;;;;;;22.97;46.52;98666.25;4962054;28;20477;-84
2023/05/25 03:33:13;;;;;;;3.55;2.25;;;;;;;23.43;45.68;98660.28;4978518;28;20401;-86
2023/05/25 03:35:39;;;;;;;3.58;2.28;;;;;;;23.93;44.82;98665.28;4994238;28;20034;-83
2023/05/25 03:38:05;;;;;;;4.18;2.35;;;;;;;24.37;43.71;98674.47;4994147;28;20096;-85
2023/05/25 03:40:30;;;;;;;4.35;2.00;;;;;;;24.76;42.98;98671.13;4978432;28;20084;-88
2023/05/25 03:42:56;;;;;;;5.72;2.28;;;;;;;25.06;42.18;98661.56;4978738;28;20030;-82
2023/05/25 03:45:21;;;;;;;3.03;2.08;;;;;;;25.46;41.22;98669.38;4970721;28;20050;-79
2023/05/25 03:47:47;;;;;;;2.88;2.00;;;;;;;25.92;40.42;98670.06;4994034;28;20042;-80
2023/05/25 03:50:12;;;;;;;4.05;2.10;;;;;;;26.27;39.44;98669.59;4978048;28;20383;-84
2023/05/25 03:52:37;;;;;;;4.53;2.25;;;;;;;26.49;38.63;98675.34;4997129;28;20078;-82
2023/05/25 03:55:04;;;;;;;5.25;2.10;;;;;;;26.69;38.25;98661.78;4994695;28;20026;-89
2023/05/25 03:57:29;;;;;;;8.48;2.30;;;;;;;27.18;38.01;98668.97;4994768;28;20022;-87
2023/05/25 03:59:55;;;;;;;3.53;2.30;;;;;;;27.50;37.07;98672.28;4995207;28;20073;-88
2023/05/25 04:02:21;;;;;;;5.60;2.22;;;;;;;27.99;36.11;98680.22;4978372;28;20049;-85
2023/05/25 04:04:50;;;;;;;5.97;2.15;;;;;;;28.37;35.81;98684.31;4978225;28;20046;-81
2023/05/25 04:07:17;;;;;;;5.93;2.00;;;;;;;29.07;35.89;98685.25;4995232;28;20027;-81
2023/05/25 04:09:43;;;;;;;8.10;2.30;;;;;;;29.27;35.03;98689.41;4976165;28;20038;-87
2023/05/25 04:12:08;;;;;;;12.38;2.28;;;;;;;29.33;36.03;98691.94;4992211;28;20521;-85
2023/05/25 04:14:34;;;;;;;11.82;2.05;;;;;;;29.29;37.74;98693.50;4974865;28;20037;-80
2023/05/25 04:16:59;;;;;;;14.13;2.20;;;;;;;29.25;37.71;98688.84;4994497;28;20080;-80
2023/05/25 04:19:25;;;;;;;12.35;2.13;;;;;;;29.22;37.53;98690.97;4993778;28;20464;-80
2023/05/25 04:21:50;;;;;;;19.00;2.28;;;;;;;29.25;36.72;98697.69;4994622;28;20038;-79
2023/05/25 04:24:16;;;;;;;12.15;2.28;;;;;;;29.50;36.73;98699.25;4994651;28;20038;-79
2023/05/25 04:26:42;;;;;;;6.93;2.08;;;;;;;29.90;35.54;98701.03;4996939;28;20034;-79
2023/05/25 04:29:08;;;;;;;7.72;2.33;;;;;;;30.19;34.16;98696.38;4992486;28;20038;-88
2023/05/25 04:31:34;;;;;;;12.43;2.42;;;;;;;30.51;32.49;98700.34;4961369;28;20030;-89
2023/05/25 04:34:01;;;;;;;15.65;2.88;;;;;;;30.80;31.68;98688.34;4993656;28;20545;-90
2023/05/25 04:36:27;;;;;;;8.13;2.40;;;;;;;30.88;31.73;98689.78;4977657;28;20026;-91
2023/05/25 04:38:54;;;;;;;16.85;3.28;;;;;;;31.48;29.82;98698.00;4978339;28;20429;-93
2023/05/25 04:41:19;;;;;;;14.35;3.50;;;;;;;31.89;29.32;98701.09;4994284;28;20030;-92
2023/05/25 04:43:45;;;;;;;12.05;3.10;;;;;;;32.14;29.17;98695.13;4978105;28;20054;-93
2023/05/25 04:46:12;;;;;;;11.43;3.30;;;;;;;32.60;27.97;98695.38;4995691;28;20030;-92
2023/05/25 04:48:39;;;;;;;12.98;2.85;;;;;;;33.05;27.42;98705.88;4994640;28;20038;-93
2023/05/25 04:51:06;;;;;;;8.43;3.60;;;;;;;33.49;26.86;98700.03;4994768;28;20074;-87
2023/05/25 04:53:31;;;;;;;6.60;2.83;;;;;;;33.95;26.38;98696.56;4960987;28;20642;-89
2023/05/25 04:55:57;;;;;;;11.73;3.33;;;;;;;34.25;25.64;98702.00;4978099;28;20030;-91
2023/05/25 04:58:23;;;;;;;13.23;3.67;;;;;;;34.31;25.87;98691.16;4994578;28;20473;-91
2023/05/25 05:00:49;;;;;;;16.08;3.60;;;;;;;34.28;25.73;98702.53;4979255;28;20073;-92
2023/05/25 05:03:14;;;;;;;21.13;4.00;;;;;;;34.17;25.49;98704.41;4993830;28;20140;-83
2023/05/25 05:05:40;;;;;;;15.40;4.10;;;;;;;33.27;26.10;98706.53;4992857;28;20030;-83
2023/05/25 05:08:06;;;;;;;12.93;3.95;;;;;;;32.54;27.44;98701.81;4992861;28;20502;-84
2023/05/25 05:10:31;;;;;;;18.55;4.00;;;;;;;31.99;28.15;98706.59;4960510;28;20497;-84
2023/05/25 05:12:57;;;;;;;15.98;5.30;;;;;;;31.52;28.71;98707.22;4993152;28;20074;-84
2023/05/25 05:15:22;;;;;;;18.20;6.03;;;;;;;31.20;29.20;98703.41;4993130;28;20096;-84
2023/05/25 05:17:48;;;;;;;14.27;5.78;;;;;;;31.31;29.09;98707.03;4994171;28;20034;-84
2023/05/25 05:20:13;;;;;;;27.98;6.05;;;;;;;31.38;29.00;98710.31;4993495;28;20088;-83
2023/05/25 05:22:40;;;;;;;19.80;6.38;;;;;;;30.83;29.86;98704.00;4977029;28;20394;-84
2023/05/25 05:25:06;;;;;;;17.50;6.33;;;;;;;30.84;29.47;98718.31;4993378;28;20045;-86
2023/05/25 05:27:33;;;;;;;25.02;6.15;;;;;;;30.99;29.57;98723.09;4992000;28;20030;-87
2023/05/25 05:29:59;;;;;;;27.20;7.00;;;;;;;31.09;29.24;98731.31;4993485;28;20069;-84
2023/05/25 05:32:24;;;;;;;16.38;6.07;;;;;;;31.46;29.88;98730.63;4997140;28;20300;-89
2023/05/25 05:34:50;;;;;;;17.55;5.97;;;;;;;32.24;28.43;98726.75;4979447;28;20124;-82
2023/05/25 05:37:15;;;;;;;21.25;5.97;;;;;;;32.81;27.67;98727.94;4976882;28;20573;-83
2023/05/25 05:39:41;;;;;;;21.88;6.50;;;;;;;33.24;26.71;98738.66;4992400;28;20549;-79
2023/05/25 05:42:08;;;;;;;21.83;5.97;;;;;;;33.41;27.11;98741.16;5002022;28;20041;-88
2023/05/25 05:44:39;;;;;;;16.83;5.28;;;;;;;32.86;27.56;98744.16;4994798;28;20038;-80
2023/05/25 05:47:06;;;;;;;13.85;4.53;;;;;;;32.52;26.58;98741.00;4994826;28;20030;-82
2023/05/25 05:49:33;;;;;;;15.43;4.32;;;;;;;32.15;27.72;98741.81;4964751;28;20126;-88
2023/05/25 05:51:59;;;;;;;20.50;4.53;;;;;;;32.42;27.61;98747.16;4974229;28;20404;-81
2023/05/25 05:54:26;;;;;;;15.85;4.88;;;;;;;32.75;27.59;98748.72;4994750;28;20053;-80
2023/05/25 05:56:53;;;;;;;7.28;3.80;;;;;;;33.39;26.53;98751.44;4957065;28;20482;-87
2023/05/25 05:59:20;;;;;;;7.40;3.88;;;;;;;34.21;25.46;98754.25;4995081;28;20149;-78
2023/05/25 06:01:46;;;;;;;11.57;3.80;;;;;;;34.79;24.80;98748.50;4992921;28;20034;-80
2023/05/25 06:04:14;;;;;;;17.52;3.78;;;;;;;35.40;24.48;98750.16;4982833;28;20576;-80
2023/05/25 06:06:41;;;;;;;14.52;3.80;;;;;;;35.67;24.20;98747.00;4992769;28;20042;-80
2023/05/25 06:09:09;;;;;;;10.47;3.67;;;;;;;36.07;23.52;98749.69;4985451;28;20062;-81
2023/05/25 06:11:36;;;;;;;14.75;3.88;;;;;;;36.11;23.31;98750.75;4991757;28;20112;-84
2023/05/25 06:14:14;;;;;;;10.32;3.50;;;;;;;36.22;23.26;98751.47;4966682;28;20121;-86
2023/05/25 06:16:42;;;;;;;18.42;4.05;;;;;;;36.34;22.81;98751.13;4994930;28;20042;-85
2023/05/25 06:19:07;;;;;;;;;;;;;;;36.09;23.90;98750.25;4980090;28;20461;-77
2023/05/25 06:21:42;;;;;;;23.83;4.00;;;;;;;36.12;23.19;98752.41;4994686;28;19914;-85
2023/05/25 06:24:07;;;;;;;12.82;3.30;;;;;;;36.18;22.73;98751.25;4992219;28;20038;-84
2023/05/25 06:26:33;;;;;;;17.25;3.72;;;;;;;36.05;22.99;98751.91;4975682;28;20038;-75
2023/05/25 06:28:58;;;;;;;15.07;3.80;;;;;;;36.15;23.25;98759.13;4960541;28;20042;-77
2023/05/25 06:31:24;;;;;;;19.30;3.90;;;;;;;36.31;22.93;98757.13;4991725;28;20242;-77
2023/05/25 06:33:51;;;;;;;14.55;3.60;;;;;;;36.51;22.59;98753.41;4975719;28;20096;-79
2023/05/25 06:36:16;;;;;;;13.73;4.07;;;;;;;36.60;22.04;98750.88;4991697;28;20113;-78
2023/05/25 06:38:42;;;;;;;14.20;3.65;;;;;;;36.40;22.37;98758.97;4972794;28;20281;-79
2023/05/25 06:41:11;;;;;;;15.50;4.20;;;;;;;36.51;22.76;98758.84;4975467;28;20035;-79
2023/05/25 06:43:41;;;;;;;16.02;3.90;;;;;;;36.78;24.13;98762.94;4980623;28;20041;-77
2023/05/25 06:46:09;;;;;;;14.05;3.90;;;;;;;37.05;22.00;98767.78;4977469;28;20090;-76
2023/05/25 06:48:36;;;;;;;9.60;3.47;;;;;;;37.05;22.19;98763.16;4976990;28;20039;-75
2023/05/25 06:51:02;;;;;;;23.85;3.40;;;;;;;37.00;24.65;98748.81;5137283;23;20057;-77
2023/05/25 06:53:30;;;;;;;8.80;3.72;;;;;;;36.91;22.81;98760.34;4995929;28;20026;-80
2023/05/25 06:55:55;;;;;;;14.18;3.50;;;;;;;36.75;21.67;98750.72;4980454;28;20041;-82
2023/05/25 06:58:22;;;;;;;13.60;3.30;;;;;;;36.39;22.09;98751.88;4998338;28;20034;-73
2023/05/25 07:00:47;;;;;;;12.73;3.40;;;;;;;36.60;22.77;98761.75;4996766;28;20069;-79
2023/05/25 07:03:13;;;;;;;14.55;3.78;;;;;;;36.56;22.18;98764.22;4995422;28;20049;-78
2023/05/25 07:05:44;;;;;;;16.52;3.90;;;;;;;36.56;24.11;98759.59;4976041;28;20074;-81
2023/05/25 07:08:10;;;;;;;20.75;3.80;;;;;;;36.68;25.41;98764.63;4966761;28;20030;-79
2023/05/25 07:10:35;;;;;;;17.70;3.78;;;;;;;37.14;24.65;98760.59;4967191;28;20505;-85
2023/05/25 07:13:01;;;;;;;17.42;3.80;;;;;;;37.40;24.12;98766.53;5049736;23;20061;-83
2023/05/25 07:15:26;;;;;;;21.05;4.45;;;;;;;37.66;23.49;98768.88;5002884;28;20041;-84
2023/05/25 07:17:52;;;;;;;18.55;5.10;;;;;;;37.98;22.79;98765.41;5023607;28;20104;-84
2023/05/25 07:20:17;;;;;;;16.70;5.20;;;;;;;38.30;22.47;98769.28;5031589;28;20029;-80
2023/05/25 07:22:45;;;;;;;19.88;5.20;;;;;;;38.32;23.48;98772.50;5032560;28;20037;-81
2023/05/25 07:25:11;;;;;;;14.30;4.90;;;;;;;38.34;24.69;98775.72;5018463;28;20038;-83
2023/05/25 07:27:36;;;;;;;18.27;4.38;;;;;;;38.40;24.88;98776.44;4999400;28;20053;-79
2023/05/25 07:30:03;;;;;;;12.90;4.78;;;;;;;38.30;25.65;98766.53;4982549;28;20030;-80
2023/05/25 07:32:28;;;;;;;14.50;5.10;;;;;;;38.00;25.78;98768.66;4998485;28;20024;-82
2023/05/25 07:34:54;;;;;;;15.18;4.70;;;;;;;37.62;24.64;98763.22;5023268;28;20025;-81
2023/05/25 07:37:20;;;;;;;17.75;4.90;;;;;;;37.46;25.80;98757.19;5017630;28;20060;-81
2023/05/25 07:39:46;;;;;;;23.90;5.38;;;;;;;37.51;26.05;98760.94;5001648;28;20029;-82
2023/05/25 07:42:13;;;;;;;25.70;5.93;;;;;;;37.54;25.78;98765.78;5036809;28;20519;-80
2023/05/25 07:44:38;;;;;;;21.38;5.03;;;;;;;37.61;25.99;98763.53;5034490;28;20073;-79
2023/05/25 07:47:05;;;;;;;18.23;4.32;;;;;;;37.76;26.21;98763.28;5024657;28;20065;-81
2023/05/25 07:49:31;;;;;;;17.55;4.38;;;;;;;37.91;26.71;98764.19;4982234;28;20047;-81
2023/05/25 07:51:56;;;;;;;16.67;4.10;;;;;;;38.02;26.42;98768.34;4996330;28;20038;-81
2023/05/25 07:54:23;;;;;;;9.45;3.28;;;;;;;38.06;26.39;98766.63;5015044;28;20026;-82
2023/05/25 07:56:49;;;;;;;7.18;3.17;;;;;;;38.04;27.37;98759.88;5014947;28;20040;-81
2023/05/25 07:59:14;;;;;;;7.60;2.78;;;;;;;38.03;26.88;98758.25;5014981;28;20030;-85
2023/05/25 08:01:40;;;;;;;9.20;3.03;;;;;;;38.09;27.35;98767.97;4982384;28;20440;-82
2023/05/25 08:04:06;;;;;;;7.15;2.90;;;;;;;38.10;26.03;98772.31;4997988;28;20034;-82
2023/05/25 08:06:33;;;;;;;8.82;2.78;;;;;;;38.13;27.42;98763.50;5014911;28;20026;-82
2023/05/25 08:08:59;;;;;;;7.77;2.70;;;;;;;38.09;27.56;98767.97;4998270;28;20406;-83
2023/05/25 08:11:25;;;;;;;8.55;2.75;;;;;;;37.58;28.06;98766.84;4981679;28;20084;-85
2023/05/25 08:13:51;;;;;;;3.08;2.10;;;;;;;36.99;28.91;98760.78;4981894;28;20534;-82
2023/05/25 08:16:16;;;;;;;8.23;2.60;;;;;;;37.28;28.80;98756.06;4981756;28;20026;-81
2023/05/25 08:18:45;;;;;;;7.07;2.35;;;;;;;36.51;29.36;98754.19;4997618;28;20073;-82
2023/05/25 08:21:11;;;;;;;7.32;2.70;;;;;;;36.63;29.01;98756.53;4997805;28;20136;-83
2023/05/25 08:23:41;;;;;;;4.97;2.40;;;;;;;36.82;28.57;98758.53;5014090;28;20551;-82
2023/05/25 08:26:10;;;;;;;6.20;2.58;;;;;;;36.49;29.05;98745.53;4982640;28;20056;-82
2023/05/25 08:28:35;;;;;;;7.50;2.33;;;;;;;36.74;28.13;98749.91;4980378;28;20041;-81
2023/05/25 08:31:01;;;;;;;3.95;2.17;;;;;;;36.83;28.47;98758.25;5014625;28;20030;-83
2023/05/25 08:33:27;;;;;;;5.88;2.60;;;;;;;36.34;28.66;98748.41;5013169;28;20041;-81
2023/05/25 08:35:53;;;;;;;3.75;2.30;;;;;;;36.25;29.74;98750.94;4997108;28;20100;-84
2023/05/25 08:38:18;;;;;;;5.57;2.30;;;;;;;36.32;27.91;98742.44;4998309;28;20045;-81
2023/05/25 08:40:44;;;;;;;6.03;2.13;;;;;;;36.40;28.41;98742.66;4996668;28;20048;-81
2023/05/25 08:43:09;;;;;;;6.28;2.20;;;;;;;36.52;28.79;98749.59;4997339;28;20030;-81
2023/05/25 08:45:36;;;;;;;5.47;2.00;;;;;;;36.57;28.07;98753.06;4981760;28;20133;-81
2023/05/25 08:48:05;;;;;;;5.33;2.10;;;;;;;36.01;27.36;98748.16;4981527;28;20041;-83
2023/05/25 08:50:32;;;;;;;3.88;1.95;;;;;;;35.87;28.10;98745.25;5014012;28;20029;-82
2023/05/25 08:52:58;;;;;;;2.92;1.90;;;;;;;35.90;26.80;98739.25;4981161;28;20030;-81
2023/05/25 08:55:24;;;;;;;3.20;1.98;;;;;;;35.50;28.14;98730.28;4997238;28;20464;-83
2023/05/25 08:58:05;;;;;;;3.55;1.70;;;;;;;35.02;28.54;98735.41;4997539;28;20085;-83
2023/05/25 09:00:35;;;;;;;7.28;2.10;;;;;;;34.67;28.38;98729.81;4981546;28;20175;-82
2023/05/25 09:03:19;;;;;;;6.03;1.95;;;;;;;34.30;28.74;98732.88;4997019;28;20570;-83
2023/05/25 09:05:46;;;;;;;5.32;1.88;;;;;;;33.91;29.42;98730.72;4996961;28;20485;-80
2023/05/25 09:08:12;;;;;;;8.18;2.17;;;;;;;33.56;30.65;98735.78;4981062;28;20447;-81
2023/05/25 09:10:38;;;;;;;3.80;2.08;;;;;;;33.06;31.01;98721.81;4996913;28;20104;-82
2023/05/25 09:13:04;;;;;;;7.40;2.10;;;;;;;33.18;30.71;98733.25;4996777;28;20057;-81
2023/05/25 09:15:30;;;;;;;4.18;2.05;;;;;;;33.28;30.48;98726.25;4996583;28;20075;-82
2023/05/25 09:17:55;;;;;;;2.83;1.80;;;;;;;33.43;30.40;98722.75;5014422;28;20502;-81
2023/05/25 09:20:21;;;;;;;3.55;1.75;;;;;;;33.39;29.45;98713.56;4997369;28;20041;-82
2023/05/25 09:22:47;;;;;;;3.33;2.00;;;;;;;33.14;30.54;98721.31;4997179;28;20025;-81
2023/05/25 09:25:14;;;;;;;4.45;1.90;;;;;;;32.87;31.00;98720.69;4996188;28;20038;-82
2023/05/25 09:27:40;;;;;;;6.85;1.88;;;;;;;32.62;32.06;98722.97;4996745;28;20421;-81
2023/05/25 09:30:06;;;;;;;4.72;2.03;;;;;;;32.26;32.48;98711.09;5012904;28;20030;-82
2023/05/25 09:32:35;;;;;;;3.35;2.05;;;;;;;32.06;32.69;98714.47;4996061;28;20038;-81
2023/05/25 09:35:08;;;;;;;6.63;2.10;;;;;;;31.89;33.15;98720.78;5012206;28;20042;-81
2023/05/25 09:37:34;;;;;;;4.68;2.13;;;;;;;31.74;32.98;98718.78;5012795;28;20030;-81
2023/05/25 09:39:59;;;;;;;3.20;2.10;;;;;;;31.50;33.79;98723.66;4996703;28;20037;-81
2023/05/25 09:42:28;;;;;;;4.78;2.05;;;;;;;31.30;34.04;98720.75;4979856;28;20038;-81
2023/05/25 09:44:54;;;;;;;6.15;1.90;;;;;;;31.07;34.31;98713.75;5012861;28;20029;-82
2023/05/25 09:47:19;;;;;;;3.63;2.15;;;;;;;30.84;34.46;98729.88;4979871;28;20460;-82
2023/05/25 09:49:46;;;;;;;3.70;1.80;;;;;;;30.63;35.11;98723.44;4996148;28;20089;-80
2023/05/25 09:52:12;;;;;;;4.90;2.05;;;;;;;30.47;35.26;98726.94;5012015;28;20025;-82
2023/05/25 09:54:38;;;;;;;6.57;2.13;;;;;;;30.33;35.85;98723.78;4995080;28;20034;-82
2023/05/25 09:57:04;;;;;;;5.93;2.30;;;;;;;30.24;36.30;98730.63;4995580;28;20112;-80
2023/05/25 09:59:30;;;;;;;5.83;2.40;;;;;;;30.11;36.72;98724.53;5012067;28;20104;-82
2023/05/25 10:01:56;;;;;;;4.47;1.90;;;;;;;30.20;36.44;98714.13;5012366;28;20034;-82
2023/05/25 10:04:23;;;;;;;3.17;1.92;;;;;;;30.46;36.00;98726.16;4995736;28;20084;-80
2023/05/25 10:06:51;;;;;;;5.95;2.00;;;;;;;30.53;36.20;98723.28;4996054;28;20455;-81
2023/05/25 10:09:20;;;;;;;7.22;2.15;;;;;;;30.52;35.37;98718.13;4997156;28;20420;-83
2023/05/25 10:11:45;;;;;;;4.18;2.10;;;;;;;30.69;35.03;98710.81;4995958;28;20040;-82
2023/05/25 10:14:13;;;;;;;4.47;1.90;;;;;;;30.79;34.75;98705.59;4979632;28;20054;-81
2023/05/25 10:16:39;;;;;;;3.78;2.10;;;;;;;30.82;34.61;98698.84;4979112;28;20408;-80
2023/05/25 10:19:09;;;;;;;2.65;1.95;;;;;;;30.93;34.34;98695.25;4995688;28;20191;-82
2023/05/25 10:21:35;;;;;;;7.68;2.35;;;;;;;30.88;33.81;98691.66;5014035;28;20062;-82
2023/05/25 10:24:03;;;;;;;5.10;1.63;;;;;;;30.90;32.55;98684.97;4996100;28;20459;-81
2023/05/25 10:26:34;;;;;;;4.13;1.88;;;;;;;30.95;32.60;98687.72;4995811;28;20048;-82
2023/05/25 10:29:00;;;;;;;4.78;1.80;;;;;;;30.88;32.93;98681.69;4995819;28;20048;-81
2023/05/25 10:31:28;;;;;;;2.72;1.58;;;;;;;30.80;33.18;98682.13;4995976;28;20034;-81
2023/05/25 10:33:53;;;;;;;5.20;1.83;;;;;;;30.83;32.53;98671.66;4995330;28;20448;-81
2023/05/25 10:36:20;;;;;;;5.50;1.85;;;;;;;30.82;32.47;98682.69;4995157;28;20034;-81
2023/05/25 10:38:45;;;;;;;3.47;2.00;;;;;;;30.83;31.90;98685.13;4995058;28;20033;-80
2023/05/25 10:41:11;;;;;;;4.68;1.75;;;;;;;30.79;32.04;98683.19;4995847;28;20033;-81
2023/05/25 10:43:40;;;;;;;3.08;1.88;;;;;;;30.62;32.09;98691.34;4978806;28;20034;-81
2023/05/25 10:46:05;;;;;;;4.68;1.90;;;;;;;30.56;32.83;98690.47;4978790;28;20485;-81
2023/05/25 10:48:42;;;;;;;6.63;2.00;;;;;;;30.47;32.79;98698.16;5011395;28;20026;-81
2023/05/25 10:51:09;;;;;;;6.93;2.00;;;;;;;30.45;33.14;98692.19;5012123;28;20026;-83
2023/05/25 10:53:34;;;;;;;3.13;1.83;;;;;;;30.50;33.33;98696.84;4995718;28;20402;-81
2023/05/25 10:56:04;;;;;;;4.60;2.17;;;;;;;30.45;33.45;98681.41;4995419;28;20033;-81
2023/05/25 10:58:30;;;;;;;4.05;2.17;;;;;;;30.49;33.20;98682.56;4994937;28;20121;-80
2023/05/25 11:01:18;;;;;;;4.05;2.08;;;;;;;30.63;32.87;98672.25;4978432;28;20069;-83
2023/05/25 11:03:47;;;;;;;5.93;2.22;;;;;;;30.73;33.05;98679.63;4917189;29;20107;-80
2023/05/25 11:06:39;;;;;;;3.75;2.10;;;;;;;30.77;32.83;98672.66;4933884;29;20115;-84
2023/05/25 11:09:06;;;;;;;3.97;2.17;;;;;;;30.81;32.68;98671.09;4917408;29;20050;-83
2023/05/25 11:12:03;;;;;;;5.73;2.20;;;;;;;30.84;33.02;98673.31;4886597;29;20050;-81
2023/05/25 11:14:31;;;;;;;7.28;2.20;;;;;;;30.96;32.47;98675.03;4877291;29;20575;-82
2023/05/25 11:17:12;;;;;;;3.50;2.10;;;;;;;31.01;32.21;98675.97;4876551;29;20053;-84
2023/05/25 11:19:50;;;;;;;4.00;1.80;;;;;;;31.05;31.94;98699.72;4876430;29;20048;-82
2023/05/25 11:22:21;;;;;;;6.07;2.03;;;;;;;31.04;31.87;98685.41;4861442;29;20072;-82
2023/05/25 11:24:47;;;;;;;6.03;2.17;;;;;;;30.90;32.07;98690.34;4861329;29;20501;-82
2023/05/25 11:27:13;;;;;;;4.78;2.05;;;;;;;30.80;32.28;98685.63;4861930;29;20128;-81
2023/05/25 11:29:39;;;;;;;4.43;1.92;;;;;;;30.79;32.73;98680.50;4864590;29;20052;-82